createdAt,value
2023-03-30T00:01:18.587Z,99518.55
2023-03-30T00:03:50.234Z,99515.98
2023-03-30T00:06:23.120Z,99516.09
2023-03-30T00:08:59.148Z,99513.75
2023-03-30T00:11:34.038Z,99515.13
2023-03-30T00:14:04.094Z,99514.55
2023-03-30T00:16:32.300Z,99514.11
2023-03-30T00:19:00.522Z,99512.00
2023-03-30T00:21:33.548Z,99510.17
2023-03-30T00:24:03.665Z,99512.73
2023-03-30T00:26:35.212Z,99511.83
2023-03-30T00:29:04.458Z,99514.41
2023-03-30T00:31:33.103Z,99513.05
2023-03-30T00:34:01.197Z,99513.70
2023-03-30T00:36:30.690Z,99512.10
2023-03-30T00:39:01.511Z,99511.79
2023-03-30T00:41:29.617Z,99506.77
2023-03-30T00:44:03.973Z,99511.34
2023-03-30T00:46:32.367Z,99511.55
2023-03-30T00:49:07.266Z,99516.33
2023-03-30T00:51:37.347Z,99517.98
2023-03-30T00:54:14.444Z,99521.21
2023-03-30T00:56:42.872Z,99519.20
2023-03-30T00:59:11.197Z,99519.94
2023-03-30T01:01:42.861Z,99522.40
2023-03-30T01:04:14.352Z,99526.73
2023-03-30T01:06:43.675Z,99527.27
2023-03-30T01:09:13.386Z,99529.34
2023-03-30T01:11:42.872Z,99529.20
2023-03-30T01:14:14.701Z,99527.08
2023-03-30T01:16:43.329Z,99531.56
2023-03-30T01:19:48.047Z,99533.67
2023-03-30T01:22:35.209Z,99533.23
2023-03-30T01:25:41.805Z,99543.05
2023-03-30T01:28:15.607Z,99548.38
2023-03-30T01:30:51.158Z,99549.52
2023-03-30T01:33:34.367Z,99550.83
2023-03-30T01:36:20.740Z,99555.19
2023-03-30T01:39:06.542Z,99556.27
2023-03-30T01:42:03.631Z,99557.46
2023-03-30T01:44:35.730Z,99559.17
2023-03-30T01:47:07.279Z,99562.63
2023-03-30T01:49:41.103Z,99565.29
2023-03-30T01:52:24.063Z,99558.52
2023-03-30T01:55:13.863Z,99563.19
2023-03-30T01:57:46.557Z,99566.75
2023-03-30T02:00:17.934Z,99571.80
2023-03-30T02:03:10.957Z,99576.61
2023-03-30T02:05:39.183Z,99581.17
2023-03-30T02:08:13.698Z,99581.05
2023-03-30T02:10:43.451Z,99583.55
2023-03-30T02:13:11.371Z,99587.14
2023-03-30T02:15:47.933Z,99588.05
2023-03-30T02:18:18.972Z,99587.11
2023-03-30T02:20:49.518Z,99589.89
2023-03-30T02:23:21.022Z,99589.85
2023-03-30T02:25:49.620Z,99590.86
2023-03-30T02:28:24.971Z,99593.77
2023-03-30T02:30:53.774Z,99594.95
2023-03-30T02:33:30.097Z,99593.95
2023-03-30T02:36:21.938Z,99598.31
2023-03-30T02:39:05.453Z,99598.98
2023-03-30T02:41:52.785Z,99607.09
2023-03-30T02:44:22.977Z,99605.11
2023-03-30T02:47:02.659Z,99609.93
2023-03-30T02:49:56.627Z,99605.86
2023-03-30T02:52:51.169Z,99611.27
2023-03-30T02:55:20.638Z,99611.95
2023-03-30T02:58:21.460Z,99615.88
2023-03-30T03:00:52.408Z,99616.96
2023-03-30T03:03:38.668Z,99614.85
2023-03-30T03:06:12.226Z,99613.59
2023-03-30T03:08:47.571Z,99614.09
2023-03-30T03:11:19.920Z,99612.89
2023-03-30T03:13:50.015Z,99617.60
2023-03-30T03:16:19.270Z,99619.19
2023-03-30T03:19:05.777Z,99623.85
2023-03-30T03:21:36.706Z,99624.63
2023-03-30T03:24:05.360Z,99627.47
2023-03-30T03:26:59.477Z,99628.47
2023-03-30T03:29:28.125Z,99635.38
2023-03-30T03:31:59.214Z,99633.70
2023-03-30T03:34:33.309Z,99636.46
2023-03-30T03:37:04.508Z,99642.37
2023-03-30T03:39:33.780Z,99640.14
2023-03-30T03:42:07.040Z,99640.42
2023-03-30T03:44:37.823Z,99640.14
2023-03-30T03:47:06.763Z,99636.94
2023-03-30T03:49:34.731Z,99637.51
2023-03-30T03:52:03.965Z,99637.39
2023-03-30T03:54:32.164Z,99641.11
2023-03-30T03:57:02.099Z,99635.90
2023-03-30T03:59:32.439Z,99646.98
2023-03-30T04:02:00.560Z,99644.48
2023-03-30T04:04:29.581Z,99645.89
2023-03-30T04:06:58.018Z,99646.61
2023-03-30T04:09:26.279Z,99648.48
2023-03-30T04:12:15.043Z,99650.29
2023-03-30T04:15:06.738Z,99655.02
2023-03-30T04:17:50.147Z,99653.69
2023-03-30T04:20:37.713Z,99650.92
2023-03-30T04:23:25.659Z,99652.48
2023-03-30T04:26:17.805Z,99657.45
2023-03-30T04:29:17.994Z,99662.44
2023-03-30T04:32:04.169Z,99656.38
2023-03-30T04:34:54.888Z,99655.80
2023-03-30T04:37:38.486Z,99662.77
2023-03-30T04:40:24.848Z,99661.80
2023-03-30T04:42:56.727Z,99655.86
2023-03-30T04:45:51.955Z,99659.92
2023-03-30T04:48:37.958Z,99657.41
2023-03-30T04:51:18.850Z,99656.86
2023-03-30T04:54:04.530Z,99660.90
2023-03-30T04:56:59.123Z,99664.53
2023-03-30T04:59:46.041Z,99668.48
2023-03-30T05:02:36.606Z,99665.17
2023-03-30T05:05:40.137Z,99664.17
2023-03-30T05:08:15.974Z,99663.19
2023-03-30T05:10:50.386Z,99661.24
2023-03-30T05:13:31.446Z,99664.79
2023-03-30T05:16:37.563Z,99669.81
2023-03-30T05:19:25.614Z,99669.83
2023-03-30T05:22:17.696Z,99669.84
2023-03-30T05:25:04.295Z,99664.30
2023-03-30T05:27:49.657Z,99664.34
2023-03-30T05:30:29.182Z,99668.91
2023-03-30T05:33:17.265Z,99667.26
2023-03-30T05:36:04.744Z,99671.89
2023-03-30T05:38:50.090Z,99666.42
2023-03-30T05:41:40.991Z,99664.80
2023-03-30T05:44:22.434Z,99669.20
2023-03-30T05:47:09.987Z,99671.50
2023-03-30T05:49:56.914Z,99670.31
2023-03-30T05:52:28.560Z,99676.59
2023-03-30T05:55:24.001Z,99675.02
2023-03-30T05:58:18.208Z,99671.33
2023-03-30T06:01:08.153Z,99673.17
2023-03-30T06:03:40.145Z,99672.02
2023-03-30T06:06:09.741Z,99674.88
2023-03-30T06:08:40.980Z,99677.50
2023-03-30T06:11:11.433Z,99673.07
2023-03-30T06:13:51.750Z,99666.59
2023-03-30T06:16:20.181Z,99667.22
2023-03-30T06:18:51.211Z,99667.23
2023-03-30T06:21:19.456Z,99671.52
2023-03-30T06:23:55.215Z,99674.91
2023-03-30T06:26:25.286Z,99672.59
2023-03-30T06:28:53.411Z,99670.23
2023-03-30T06:31:22.193Z,99666.27
2023-03-30T06:33:55.527Z,99665.68
2023-03-30T06:36:44.768Z,99667.52
2023-03-30T06:39:12.473Z,99664.80
2023-03-30T06:41:42.014Z,99668.26
2023-03-30T06:44:22.789Z,99665.89
2023-03-30T06:46:54.130Z,99667.31
2023-03-30T06:49:22.216Z,99661.33
2023-03-30T06:52:13.285Z,99664.63
2023-03-30T06:54:41.837Z,99662.84
2023-03-30T06:57:09.898Z,99664.88
2023-03-30T06:59:39.014Z,99658.98
2023-03-30T07:02:16.759Z,99658.56
2023-03-30T07:05:01.348Z,99656.42
2023-03-30T07:07:41.085Z,99653.23
2023-03-30T07:10:13.158Z,99656.04
2023-03-30T07:12:43.940Z,99651.66
2023-03-30T07:15:12.584Z,99651.56
2023-03-30T07:17:41.525Z,99652.47
2023-03-30T07:20:16.402Z,99654.30
2023-03-30T07:22:59.220Z,99654.02
2023-03-30T07:25:27.329Z,99653.23
2023-03-30T07:27:59.703Z,99648.83
2023-03-30T07:30:28.058Z,99646.28
2023-03-30T07:33:02.149Z,99641.38
2023-03-30T07:35:30.915Z,99634.02
2023-03-30T07:38:03.345Z,99631.64
2023-03-30T07:40:37.407Z,99628.64
2023-03-30T07:43:07.509Z,99629.67
2023-03-30T07:45:36.014Z,99625.13
2023-03-30T07:48:04.821Z,99624.94
2023-03-30T07:50:34.123Z,99620.95
2023-03-30T07:53:04.104Z,99614.95
2023-03-30T07:55:32.747Z,99613.05
2023-03-30T07:58:13.197Z,99607.10
2023-03-30T08:00:42.388Z,99608.45
2023-03-30T08:03:37.121Z,99603.29
2023-03-30T08:06:06.701Z,99602.68
2023-03-30T08:08:43.647Z,99602.30
2023-03-30T08:11:12.895Z,99605.90
2023-03-30T08:13:45.248Z,99608.80
2023-03-30T08:16:13.714Z,99609.83
2023-03-30T08:18:41.810Z,99609.20
2023-03-30T08:21:11.306Z,99610.25
2023-03-30T08:23:39.618Z,99610.38
2023-03-30T08:26:09.395Z,99605.17
2023-03-30T08:28:38.308Z,99602.24
2023-03-30T08:31:06.941Z,99597.05
2023-03-30T08:33:36.794Z,99600.39
2023-03-30T08:36:08.388Z,99602.28
2023-03-30T08:38:42.929Z,99604.41
2023-03-30T08:41:29.280Z,99600.16
2023-03-30T08:44:25.966Z,99598.35
2023-03-30T08:46:54.485Z,99596.23
2023-03-30T08:49:23.090Z,99597.18
2023-03-30T08:51:52.930Z,99597.70
2023-03-30T08:54:22.525Z,99591.33
2023-03-30T08:57:17.039Z,99587.98
2023-03-30T09:00:11.681Z,99584.48
2023-03-30T09:02:46.402Z,99578.71
2023-03-30T09:05:26.483Z,99576.16
2023-03-30T09:08:03.764Z,99577.40
2023-03-30T09:10:35.215Z,99574.28
2023-03-30T09:13:04.035Z,99572.80
2023-03-30T09:15:43.022Z,99572.98
2023-03-30T09:18:43.577Z,99563.81
2023-03-30T09:21:12.542Z,99557.72
2023-03-30T09:23:42.694Z,99561.19
2023-03-30T09:26:55.733Z,99558.86
2023-03-30T09:29:28.813Z,99559.84
2023-03-30T09:32:09.420Z,99557.12
2023-03-30T09:34:47.980Z,99556.08
2023-03-30T09:37:18.867Z,99551.56
2023-03-30T09:39:47.745Z,99552.59
2023-03-30T09:42:32.874Z,99547.92
2023-03-30T09:45:15.610Z,99544.02
2023-03-30T09:47:43.775Z,99544.61
2023-03-30T09:50:23.941Z,99539.58
2023-03-30T09:53:05.213Z,99539.30
2023-03-30T09:55:36.945Z,99536.46
2023-03-30T09:58:18.810Z,99537.04
2023-03-30T10:00:47.364Z,99535.20
2023-03-30T10:03:21.084Z,99533.44
2023-03-30T10:06:03.012Z,99534.39
2023-03-30T10:08:31.493Z,99536.58
2023-03-30T10:11:01.351Z,99528.58
2023-03-30T10:13:37.759Z,99529.28
2023-03-30T10:16:15.787Z,99528.83
2023-03-30T10:18:47.948Z,99529.33
2023-03-30T10:21:30.820Z,99529.98
2023-03-30T10:24:14.861Z,99526.69
2023-03-30T10:26:47.050Z,99522.67
2023-03-30T10:29:18.537Z,99516.71
2023-03-30T10:31:47.686Z,99518.48
2023-03-30T10:34:21.453Z,99514.52
2023-03-30T10:36:54.032Z,99506.46
2023-03-30T10:39:29.800Z,99506.92
2023-03-30T10:42:00.160Z,99502.79
2023-03-30T10:44:32.443Z,99498.86
2023-03-30T10:47:11.853Z,99494.30
2023-03-30T10:49:47.659Z,99490.41
2023-03-30T10:52:58.485Z,99495.20
2023-03-30T10:55:43.378Z,99485.79
2023-03-30T10:58:11.399Z,99487.95
2023-03-30T11:00:49.548Z,99482.02
2023-03-30T11:03:29.631Z,99478.41
2023-03-30T11:06:10.726Z,99474.02
2023-03-30T11:08:41.745Z,99474.03
2023-03-30T11:11:13.993Z,99469.41
2023-03-30T11:13:44.158Z,99468.89
2023-03-30T11:16:16.996Z,99462.08
2023-03-30T11:18:57.845Z,99462.63
2023-03-30T11:21:37.445Z,99463.25
2023-03-30T11:24:26.917Z,99460.70
2023-03-30T11:27:14.472Z,99458.92
2023-03-30T11:30:14.660Z,99450.77
2023-03-30T11:32:53.832Z,99451.56
2023-03-30T11:35:37.174Z,99456.41
2023-03-30T11:38:26.353Z,99459.15
2023-03-30T11:41:43.663Z,99451.08
2023-03-30T11:44:12.065Z,99447.88
2023-03-30T11:46:51.640Z,99446.60
2023-03-30T11:49:38.684Z,99442.74
2023-03-30T11:52:52.265Z,99440.31
2023-03-30T11:55:45.932Z,99434.30
2023-03-30T11:58:30.899Z,99435.73
2023-03-30T12:01:21.230Z,99435.80
2023-03-30T12:03:53.934Z,99437.48
2023-03-30T12:06:35.005Z,99435.86
2023-03-30T12:09:49.618Z,99438.84
2023-03-30T12:12:36.551Z,99432.73
2023-03-30T12:15:19.283Z,99431.45
2023-03-30T12:18:15.189Z,99431.86
2023-03-30T12:20:57.338Z,99431.20
2023-03-30T12:24:04.118Z,99427.04
2023-03-30T12:26:34.381Z,99426.65
2023-03-30T12:29:44.450Z,99427.96
2023-03-30T12:31:55.931Z,99424.52
2023-03-30T12:34:26.187Z,99416.82
2023-03-30T12:37:15.522Z,99422.20
2023-03-30T12:40:08.835Z,99422.33
2023-03-30T12:42:39.611Z,99416.88
2023-03-30T12:45:21.584Z,99412.44
2023-03-30T12:48:26.448Z,99411.02
2023-03-30T12:51:22.412Z,99407.55
2023-03-30T12:54:17.192Z,99401.86
2023-03-30T12:56:55.393Z,99402.95
2023-03-30T13:00:02.361Z,99400.91
2023-03-30T13:02:48.877Z,99398.85
2023-03-30T13:05:19.853Z,99397.28
2023-03-30T13:07:50.791Z,99390.80
2023-03-30T13:10:36.855Z,99392.35
2023-03-30T13:13:07.980Z,99391.38
2023-03-30T13:15:46.615Z,99386.58
2023-03-30T13:18:15.014Z,99388.67
2023-03-30T13:21:07.041Z,99384.85
2023-03-30T13:23:35.958Z,99387.39
2023-03-30T13:26:08.029Z,99392.18
2023-03-30T13:28:54.880Z,99390.28
2023-03-30T13:31:51.591Z,99389.68
2023-03-30T13:34:39.549Z,99384.03
2023-03-30T13:37:32.638Z,99378.41
2023-03-30T13:40:07.382Z,99372.77
2023-03-30T13:42:58.494Z,99368.88
2023-03-30T13:45:36.585Z,99368.33
2023-03-30T13:48:28.450Z,99364.94
2023-03-30T13:51:02.135Z,99367.77
2023-03-30T13:53:38.510Z,99364.37
2023-03-30T13:56:08.008Z,99361.40
2023-03-30T13:58:36.989Z,99357.71
2023-03-30T14:01:10.008Z,99354.98
2023-03-30T14:03:40.941Z,99355.80
2023-03-30T14:06:20.992Z,99347.80
2023-03-30T14:08:50.611Z,99344.09
2023-03-30T14:11:24.201Z,99343.28
2023-03-30T14:13:55.454Z,99342.29
2023-03-30T14:16:24.932Z,99344.00
2023-03-30T14:19:08.154Z,99343.82
2023-03-30T14:21:37.156Z,99337.10
2023-03-30T14:24:08.476Z,99339.33
2023-03-30T14:26:39.492Z,99337.64
2023-03-30T14:29:21.009Z,99334.19
2023-03-30T14:32:09.839Z,99335.35
2023-03-30T14:34:39.572Z,99331.41
2023-03-30T14:37:08.096Z,99330.73
2023-03-30T14:39:47.508Z,99329.39
2023-03-30T14:42:17.696Z,99323.45
2023-03-30T14:44:49.736Z,99318.54
2023-03-30T14:47:19.509Z,99320.76
2023-03-30T14:49:47.742Z,99317.51
2023-03-30T14:52:21.662Z,99311.48
2023-03-30T14:55:05.218Z,99311.27
2023-03-30T14:57:38.423Z,99309.04
2023-03-30T15:00:21.330Z,99309.52
2023-03-30T15:02:53.506Z,99304.98
2023-03-30T15:05:23.282Z,99301.52
2023-03-30T15:07:52.070Z,99295.65
2023-03-30T15:10:22.498Z,99301.70
2023-03-30T15:12:53.117Z,99300.05
2023-03-30T15:15:24.825Z,99300.61
2023-03-30T15:17:53.222Z,99296.90
2023-03-30T15:20:21.376Z,99303.14
2023-03-30T15:22:52.078Z,99300.83
2023-03-30T15:25:31.421Z,99293.14
2023-03-30T15:28:02.666Z,99291.79
2023-03-30T15:30:42.652Z,99291.48
2023-03-30T15:33:22.348Z,99291.87
2023-03-30T15:35:51.982Z,99284.69
2023-03-30T15:38:28.939Z,99288.40
2023-03-30T15:40:56.934Z,99290.63
2023-03-30T15:43:27.156Z,99287.96
2023-03-30T15:46:03.061Z,99289.46
2023-03-30T15:48:34.985Z,99289.56
2023-03-30T15:51:13.784Z,99289.18
2023-03-30T15:53:48.392Z,99285.53
2023-03-30T15:56:27.732Z,99285.79
2023-03-30T15:58:55.700Z,99284.60
2023-03-30T16:01:23.899Z,99287.35
2023-03-30T16:03:56.841Z,99289.75
2023-03-30T16:06:25.017Z,99286.90
2023-03-30T16:08:53.012Z,99288.91
2023-03-30T16:11:21.139Z,99292.59
2023-03-30T16:13:49.444Z,99294.66
2023-03-30T16:16:18.702Z,99292.02
2023-03-30T16:18:47.000Z,99295.21
2023-03-30T16:21:15.841Z,99297.05
2023-03-30T16:23:43.976Z,99290.56
2023-03-30T16:26:14.768Z,99294.04
2023-03-30T16:28:43.050Z,99293.73
2023-03-30T16:31:17.364Z,99296.25
2023-03-30T16:33:45.427Z,99298.61
2023-03-30T16:36:15.978Z,99299.92
2023-03-30T16:38:44.638Z,99300.45
2023-03-30T16:41:20.388Z,99296.43
2023-03-30T16:43:48.751Z,99298.38
2023-03-30T16:46:18.597Z,99300.35
2023-03-30T16:48:48.908Z,99300.64
2023-03-30T16:51:17.459Z,99302.05
2023-03-30T16:53:53.351Z,99306.56
2023-03-30T16:56:22.046Z,99307.01
2023-03-30T16:58:52.701Z,99304.73
2023-03-30T17:01:21.673Z,99304.45
2023-03-30T17:03:50.251Z,99304.41
2023-03-30T17:06:22.505Z,99300.64
2023-03-30T17:08:51.584Z,99304.16
2023-03-30T17:11:19.726Z,99303.70
2023-03-30T17:13:50.000Z,99306.14
2023-03-30T17:16:40.751Z,99306.48
2023-03-30T17:19:13.260Z,99306.27
2023-03-30T17:21:43.863Z,99305.16
2023-03-30T17:24:13.127Z,99304.01
2023-03-30T17:26:42.826Z,99308.71
2023-03-30T17:29:10.880Z,99306.60
2023-03-30T17:31:41.685Z,99305.20
2023-03-30T17:34:09.744Z,99305.30
2023-03-30T17:36:38.087Z,99307.56
2023-03-30T17:39:07.240Z,99307.10
2023-03-30T17:41:35.489Z,99307.34
2023-03-30T17:44:03.507Z,99304.83
2023-03-30T17:46:32.677Z,99302.94
2023-03-30T17:49:01.193Z,99301.30
2023-03-30T17:51:29.357Z,99303.83
2023-03-30T17:53:57.494Z,99307.88
2023-03-30T17:56:26.856Z,99303.60
2023-03-30T17:58:55.006Z,99304.82
2023-03-30T18:01:23.017Z,99304.63
2023-03-30T18:03:52.063Z,99305.88
2023-03-30T18:06:22.815Z,99304.03
2023-03-30T18:08:51.046Z,99304.88
2023-03-30T18:11:23.296Z,99299.13
2023-03-30T18:13:53.690Z,99297.84
2023-03-30T18:16:24.414Z,99297.58
2023-03-30T18:18:52.875Z,99294.60
2023-03-30T18:21:21.027Z,99297.55
2023-03-30T18:23:50.694Z,99298.86
2023-03-30T18:26:21.429Z,99298.50
2023-03-30T18:28:49.729Z,99295.59
2023-03-30T18:31:18.023Z,99292.74
2023-03-30T18:33:50.984Z,99289.95
2023-03-30T18:36:23.930Z,99286.55
2023-03-30T18:38:52.477Z,99288.12
2023-03-30T18:41:23.900Z,99287.67
2023-03-30T18:43:54.131Z,99288.48
2023-03-30T18:46:22.524Z,99282.06
2023-03-30T18:48:50.614Z,99277.17
2023-03-30T18:51:19.355Z,99274.34
2023-03-30T18:53:48.940Z,99271.70
2023-03-30T18:56:17.281Z,99269.66
2023-03-30T18:58:48.064Z,99263.10
2023-03-30T19:01:17.918Z,99258.48
2023-03-30T19:03:46.730Z,99260.46
2023-03-30T19:06:22.007Z,99258.60
2023-03-30T19:08:51.108Z,99251.33
2023-03-30T19:11:24.382Z,99245.55
2023-03-30T19:13:52.904Z,99245.92
2023-03-30T19:16:23.851Z,99245.70
2023-03-30T19:18:53.834Z,99242.82
2023-03-30T19:21:22.033Z,99243.60
2023-03-30T19:23:51.403Z,99244.19
2023-03-30T19:26:19.635Z,99245.64
2023-03-30T19:28:49.830Z,99241.95
2023-03-30T19:31:18.272Z,99245.39
2023-03-30T19:33:46.412Z,99242.61
2023-03-30T19:36:16.745Z,99235.32
2023-03-30T19:38:48.145Z,99238.27
2023-03-30T19:41:18.005Z,99234.46
2023-03-30T19:43:50.190Z,99234.02
2023-03-30T19:46:18.836Z,99227.81
2023-03-30T19:48:47.233Z,99221.52
2023-03-30T19:51:15.272Z,99212.93
2023-03-30T19:53:47.604Z,99211.12
2023-03-30T19:56:16.146Z,99210.27
2023-03-30T19:58:44.615Z,99206.92
2023-03-30T20:01:13.633Z,99200.55
2023-03-30T20:03:42.125Z,99201.17
2023-03-30T20:06:11.741Z,99196.14
2023-03-30T20:08:40.679Z,99187.49
2023-03-30T20:11:12.673Z,99187.66
2023-03-30T20:13:45.830Z,99184.17
2023-03-30T20:16:22.250Z,99179.28
2023-03-30T20:18:52.431Z,99176.72
2023-03-30T20:21:24.581Z,99171.09
2023-03-30T20:23:53.183Z,99171.35
2023-03-30T20:26:23.700Z,99168.27
2023-03-30T20:28:51.676Z,99168.14
2023-03-30T20:31:20.422Z,99164.41
2023-03-30T20:33:48.672Z,99163.08
2023-03-30T20:36:19.151Z,99166.18
2023-03-30T20:38:48.401Z,99162.44
2023-03-30T20:41:17.584Z,99157.97
2023-03-30T20:43:56.354Z,99150.16
2023-03-30T20:46:26.205Z,99147.79
2023-03-30T20:49:02.290Z,99145.33
2023-03-30T20:51:31.303Z,99144.53
2023-03-30T20:53:59.285Z,99141.70
2023-03-30T20:56:28.755Z,99142.05
2023-03-30T20:58:57.126Z,99136.10
2023-03-30T21:01:27.320Z,99133.73
2023-03-30T21:03:57.818Z,99131.46
2023-03-30T21:06:27.178Z,99124.73
2023-03-30T21:08:57.732Z,99126.60
2023-03-30T21:11:28.558Z,99123.23
2023-03-30T21:14:02.245Z,99115.77
2023-03-30T21:16:31.502Z,99108.04
2023-03-30T21:19:00.968Z,99106.36
2023-03-30T21:21:31.495Z,99096.91
2023-03-30T21:24:04.369Z,99093.91
2023-03-30T21:26:32.448Z,99089.30
2023-03-30T21:29:04.878Z,99083.23
2023-03-30T21:31:33.485Z,99078.86
2023-03-30T21:34:02.398Z,99079.09
2023-03-30T21:36:30.523Z,99077.60
2023-03-30T21:39:00.931Z,99075.70
2023-03-30T21:41:30.402Z,99073.73
2023-03-30T21:44:01.150Z,99067.60
2023-03-30T21:46:29.488Z,99073.64
2023-03-30T21:48:57.765Z,99069.02
2023-03-30T21:51:27.758Z,99067.34
2023-03-30T21:53:57.551Z,99062.88
2023-03-30T21:56:27.676Z,99060.06
2023-03-30T21:58:55.832Z,99060.21
2023-03-30T22:01:24.603Z,99060.13
2023-03-30T22:03:56.610Z,99052.75
2023-03-30T22:06:24.904Z,99051.24
2023-03-30T22:08:53.305Z,99043.62
2023-03-30T22:11:26.535Z,99046.41
2023-03-30T22:13:55.735Z,99041.08
2023-03-30T22:16:28.977Z,99036.70
2023-03-30T22:19:04.390Z,99028.61
2023-03-30T22:21:35.848Z,99025.86
2023-03-30T22:24:05.549Z,99020.14
2023-03-30T22:26:34.703Z,99016.09
2023-03-30T22:29:03.754Z,99009.98
2023-03-30T22:31:33.264Z,99005.55
2023-03-30T22:34:04.199Z,99004.86
2023-03-30T22:36:33.330Z,99000.19
2023-03-30T22:39:04.353Z,98992.36
2023-03-30T22:41:32.849Z,98996.91
2023-03-30T22:44:01.175Z,98996.48
2023-03-30T22:46:31.406Z,98994.95
2023-03-30T22:49:00.256Z,98992.94
2023-03-30T22:51:28.989Z,98991.71
2023-03-30T22:53:58.697Z,98993.14
2023-03-30T22:56:34.500Z,98995.62
2023-03-30T22:59:03.758Z,98993.45
2023-03-30T23:01:32.402Z,98988.73
2023-03-30T23:04:05.814Z,98982.27
2023-03-30T23:06:34.417Z,98981.80
2023-03-30T23:09:04.006Z,98982.17
2023-03-30T23:11:35.036Z,98975.48
2023-03-30T23:14:07.623Z,98976.83
2023-03-30T23:16:37.861Z,98975.05
2023-03-30T23:19:07.503Z,98970.45
2023-03-30T23:21:36.852Z,98968.47
2023-03-30T23:24:11.293Z,98967.67
2023-03-30T23:26:39.425Z,98966.73
2023-03-30T23:29:07.631Z,98965.54
2023-03-30T23:31:40.267Z,98958.63
2023-03-30T23:34:12.590Z,98957.44
2023-03-30T23:36:41.283Z,98950.21
2023-03-30T23:39:10.364Z,98948.06
2023-03-30T23:41:38.291Z,98949.10
2023-03-30T23:44:07.343Z,98946.08
2023-03-30T23:46:36.037Z,98943.95
2023-03-30T23:49:04.219Z,98942.74
2023-03-30T23:51:35.014Z,98942.74
2023-03-30T23:54:07.192Z,98942.36
2023-03-30T23:56:39.162Z,98938.63
2023-03-30T23:59:07.238Z,98938.87
